Terminal Aerodrome Forecast
Issued by NWS Chicago, IL

Home | Current Version | Previous Version | Text Only | Print | Product List | Glossary On
Versions: 1 2 3 4 5 6 7 8 9 10 11 12 13 14 15 16 17 18 19 20 21 22 23 24 25 26 27 28 29 30
760
FTUS43 KLOT 210911 AAA
TAFRFD
TAF AMD
KRFD 210911Z 2109/2206 07007KT 6SM -SHRA SCT010 BKN018
     FM211100 07007KT 5SM -SHRA BR VCTS OVC008CB
     FM211500 10013KT 6SM -SHRA BR OVC008
     FM211800 10012KT 6SM -SHRA BR BKN008 OVC012
     FM212000 10012KT 6SM BR VCSH SCT010 OVC015
     FM220200 08010KT P6SM BKN008=

USA.gov is the U.S. government's official web portal to all federal, state and local government web resources and services.